Time;durP1;ratioP1;P1;durP2;ratioP2;P2;SDS_P1;SDS_P2;PMS_P1;PMS_P2;Temp;Humidity;BMP_temperature;BMP_pressure;BME280_temperature;BME280_humidity;BME280_pressure;Samples;Min_cycle;Max_cycle;Signal;HPM_P1;HPM_P2
2022/03/16 00:00:21;;;;;;;18.48;4.72;;;;;;;0.32;37.29;101036.78;5071182;28;20048;-77
2022/03/16 00:02:48;;;;;;;15.90;4.88;;;;;;;0.33;37.15;101040.28;5072943;28;20060;-79
2022/03/16 00:05:19;;;;;;;13.73;4.90;;;;;;;0.41;37.05;101041.06;5073292;28;20469;-76
2022/03/16 00:07:45;;;;;;;16.27;5.35;;;;;;;0.28;37.41;101044.34;5045079;28;20046;-81
2022/03/16 00:10:15;;;;;;;18.02;5.28;;;;;;;0.23;37.55;101043.19;5091568;28;20044;-78
2022/03/16 00:12:45;;;;;;;20.83;5.78;;;;;;;0.12;37.96;101039.88;5068196;28;20411;-79
2022/03/16 00:15:12;;;;;;;19.60;6.35;;;;;;;0.10;37.90;101043.78;5091709;28;20059;-78
2022/03/16 00:17:38;;;;;;;20.60;6.50;;;;;;;0.01;37.88;101039.41;5092237;28;20127;-78
2022/03/16 00:20:06;;;;;;;15.10;5.80;;;;;;;0.10;37.83;101049.97;5057720;28;20608;-79
2022/03/16 00:22:32;;;;;;;16.85;5.15;;;;;;;-0.01;38.12;101044.97;5090291;28;20059;-78
2022/03/16 00:25:05;;;;;;;19.65;5.55;;;;;;;-0.08;38.30;101035.94;5075318;28;20419;-77
2022/03/16 00:27:32;;;;;;;15.63;5.13;;;;;;;-0.04;38.15;101043.47;5055916;28;20040;-76
2022/03/16 00:29:59;;;;;;;14.65;4.75;;;;;;;0.00;38.09;101043.97;5074231;28;20142;-76
2022/03/16 00:32:26;;;;;;;13.57;5.22;;;;;;;-0.03;38.14;101042.47;5074070;28;20048;-75
2022/03/16 00:34:52;;;;;;;13.60;4.82;;;;;;;-0.12;38.29;101040.00;5091192;28;20055;-79
2022/03/16 00:37:21;;;;;;;13.05;5.10;;;;;;;-0.25;38.53;101038.69;5057792;28;20045;-80
2022/03/16 00:39:48;;;;;;;11.95;4.72;;;;;;;-0.26;38.87;101053.13;5074912;28;20664;-78
2022/03/16 00:42:14;;;;;;;12.18;5.05;;;;;;;-0.26;38.89;101058.50;5075579;28;20048;-79
2022/03/16 00:44:40;;;;;;;14.90;4.85;;;;;;;-0.19;38.37;101048.72;5090452;28;20113;-80
2022/03/16 00:47:07;;;;;;;14.38;4.65;;;;;;;-0.18;38.49;101050.41;5050200;28;20419;-78
2022/03/16 00:49:33;;;;;;;13.60;4.82;;;;;;;-0.33;38.70;101044.06;5068064;28;20044;-78
2022/03/16 00:52:01;;;;;;;12.93;5.10;;;;;;;-0.22;38.80;101056.31;5070699;28;20048;-78
2022/03/16 00:54:28;;;;;;;13.20;5.15;;;;;;;-0.16;38.31;101064.53;5069370;28;20060;-76
2022/03/16 00:56:57;;;;;;;15.63;5.18;;;;;;;-0.26;38.43;101055.81;5065240;28;20048;-76
2022/03/16 00:59:27;;;;;;;11.15;5.25;;;;;;;-0.26;38.95;101060.34;5054759;28;20044;-77
2022/03/16 01:01:53;;;;;;;13.32;5.72;;;;;;;-0.31;38.96;101061.72;5072418;28;20108;-76
2022/03/16 01:04:20;;;;;;;12.15;5.20;;;;;;;-0.32;38.88;101051.97;5067071;28;20285;-76
2022/03/16 01:06:46;;;;;;;12.38;5.03;;;;;;;-0.23;38.65;101052.78;5082810;28;20051;-76
2022/03/16 01:09:13;;;;;;;13.90;5.15;;;;;;;-0.25;38.78;101053.97;5071317;28;20040;-77
2022/03/16 01:14:35;;;;;;;14.20;5.40;;;;;;;-0.20;38.38;101049.75;5061707;28;20075;-75
2022/03/16 01:17:02;;;;;;;15.30;5.25;;;;;;;-0.07;38.46;101068.03;5071487;28;20519;-76
2022/03/16 01:19:31;;;;;;;13.80;5.47;;;;;;;-0.13;38.42;101059.81;5065953;28;20047;-75
2022/03/16 01:22:00;;;;;;;;;;;;;;;-0.06;38.45;101067.03;5054535;28;20495;-74
2022/03/16 01:24:26;;;;;;;19.83;5.80;;;;;;;-0.20;38.70;101065.06;5054624;28;19985;-76
2022/03/16 01:26:57;;;;;;;15.13;5.43;;;;;;;-0.19;38.40;101069.41;5069753;28;20083;-75
2022/03/16 01:29:26;;;;;;;14.32;5.50;;;;;;;-0.36;38.83;101049.78;5058580;28;20051;-75
2022/03/16 01:31:55;;;;;;;16.48;6.30;;;;;;;-0.21;38.67;101058.00;5052625;28;20041;-75
2022/03/16 01:34:24;;;;;;;14.02;5.63;;;;;;;-0.21;38.67;101058.81;5049624;28;20044;-75
2022/03/16 01:36:55;;;;;;;13.05;5.60;;;;;;;-0.23;38.90;101066.22;5056786;28;20044;-75
2022/03/16 01:39:25;;;;;;;13.88;5.82;;;;;;;-0.33;38.92;101055.66;5089596;28;20059;-78
2022/03/16 01:41:51;;;;;;;20.42;6.50;;;;;;;-0.25;38.91;101062.88;5070580;28;20044;-77
2022/03/16 01:44:38;;;;;;;18.08;7.40;;;;;;;-0.33;38.96;101066.41;5054932;28;20074;-77
2022/03/16 01:47:05;;;;;;;17.00;6.80;;;;;;;-0.49;39.48;101061.91;5090879;28;20442;-77
2022/03/16 01:49:31;;;;;;;20.13;7.07;;;;;;;-0.64;39.83;101069.84;5071220;28;20048;-77
2022/03/16 01:51:58;;;;;;;14.35;6.60;;;;;;;-0.74;40.14;101067.31;5035005;28;20487;-77
2022/03/16 01:54:25;;;;;;;20.10;8.07;;;;;;;-0.73;40.12;101071.69;5055154;28;20059;-77
2022/03/16 01:56:51;;;;;;;15.40;7.38;;;;;;;-0.82;40.34;101067.31;5069396;28;20056;-77
2022/03/16 01:59:18;;;;;;;13.43;6.35;;;;;;;-0.72;40.12;101067.13;5071098;28;20171;-77
2022/03/16 02:01:45;;;;;;;15.18;7.00;;;;;;;-0.82;40.28;101075.38;5061039;28;20132;-77
2022/03/16 02:04:12;;;;;;;15.55;6.57;;;;;;;-0.82;40.38;101072.69;5052431;28;20051;-79
2022/03/16 02:06:39;;;;;;;14.98;6.38;;;;;;;-0.88;40.54;101063.44;5084476;28;20422;-77
2022/03/16 02:09:06;;;;;;;14.73;6.40;;;;;;;-0.91;40.64;101062.97;5053469;28;20048;-78
2022/03/16 02:11:37;;;;;;;13.43;6.15;;;;;;;-0.95;40.23;101048.19;5064751;28;20097;-79
2022/03/16 02:14:04;;;;;;;15.70;6.10;;;;;;;-0.88;40.27;101063.44;5038042;28;20451;-78
2022/03/16 02:16:34;;;;;;;16.00;6.53;;;;;;;-0.95;40.54;101053.53;5064366;28;20122;-81
2022/03/16 02:19:00;;;;;;;15.50;6.63;;;;;;;-1.00;40.75;101060.28;5045905;28;20048;-81
2022/03/16 02:21:28;;;;;;;14.90;6.30;;;;;;;-1.07;40.97;101061.97;5088144;28;20051;-82
2022/03/16 02:23:55;;;;;;;15.67;6.07;;;;;;;-1.11;41.14;101059.78;5055080;28;20048;-83
2022/03/16 02:26:25;;;;;;;17.35;7.40;;;;;;;-1.21;41.34;101062.63;5070459;28;20053;-84
2022/03/16 02:28:52;;;;;;;19.77;7.07;;;;;;;-1.18;41.32;101056.91;5070284;28;20144;-80
2022/03/16 02:31:18;;;;;;;15.97;7.20;;;;;;;-1.24;41.43;101063.78;5090223;28;20055;-80
2022/03/16 02:33:45;;;;;;;15.15;6.53;;;;;;;-1.32;41.85;101066.47;5072749;28;20035;-81
2022/03/16 02:36:11;;;;;;;21.37;7.77;;;;;;;-1.46;41.93;101058.03;5070070;28;20059;-82
2022/03/16 02:38:39;;;;;;;19.67;7.63;;;;;;;-1.31;41.92;101074.34;5055803;28;20135;-84
2022/03/16 02:41:06;;;;;;;;;;;;;;;-1.36;41.93;101079.38;5090606;28;20124;-79
2022/03/16 02:43:32;;;;;;;17.60;7.43;;;;;;;-1.44;41.90;101082.88;5072066;28;19924;-80
2022/03/16 02:45:59;;;;;;;20.60;8.07;;;;;;;-1.41;41.98;101073.63;5047815;28;20045;-79
2022/03/16 02:48:25;;;;;;;19.83;7.53;;;;;;;-1.42;42.04;101077.31;5055401;28;20047;-80
2022/03/16 02:50:51;;;;;;;26.10;7.47;;;;;;;-1.47;42.20;101076.97;5054709;28;20101;-80
2022/03/16 02:53:18;;;;;;;17.37;7.37;;;;;;;-1.40;42.14;101080.69;5068851;28;20486;-80
2022/03/16 02:55:45;;;;;;;18.73;7.07;;;;;;;-1.38;42.09;101067.97;5045416;28;20496;-80
2022/03/16 02:58:12;;;;;;;17.40;6.95;;;;;;;-1.43;42.32;101079.19;5070264;28;20139;-77
2022/03/16 03:00:38;;;;;;;17.90;7.70;;;;;;;-1.40;42.26;101079.84;5087974;28;20613;-78
2022/03/16 03:03:04;;;;;;;18.13;7.67;;;;;;;-1.33;42.15;101078.16;5061226;28;20321;-76
2022/03/16 03:05:30;;;;;;;19.97;7.33;;;;;;;-1.39;42.31;101077.00;5068206;28;20044;-77
2022/03/16 03:07:57;;;;;;;16.97;7.20;;;;;;;-1.38;42.21;101076.00;5049898;28;20553;-76
2022/03/16 03:10:23;;;;;;;18.00;7.73;;;;;;;-1.40;42.23;101072.66;5086779;28;20040;-77
2022/03/16 03:12:49;;;;;;;12.53;6.67;;;;;;;-1.37;41.98;101079.50;5052907;28;20070;-77
2022/03/16 03:15:16;;;;;;;17.73;6.63;;;;;;;-1.39;41.98;101074.34;5064477;28;20051;-76
2022/03/16 03:17:43;;;;;;;14.40;6.88;;;;;;;-1.43;41.77;101081.00;5069022;28;20140;-77
2022/03/16 03:20:11;;;;;;;15.20;7.03;;;;;;;-1.36;42.07;101081.19;5079967;28;20052;-78
2022/03/16 03:22:36;;;;;;;;;;;;;;;-1.43;42.38;101094.44;5069794;28;20051;-77
2022/03/16 03:25:08;;;;;;;14.77;6.33;;;;;;;-1.47;41.95;101077.84;5062744;28;19924;-76
2022/03/16 03:27:35;;;;;;;14.73;6.97;;;;;;;-1.44;41.96;101085.56;5064890;28;20094;-78
2022/03/16 03:30:01;;;;;;;14.17;6.90;;;;;;;-1.48;41.85;101094.09;5055055;28;20181;-79
2022/03/16 03:32:30;;;;;;;15.47;6.87;;;;;;;-1.45;41.93;101093.75;5042691;28;20055;-77
2022/03/16 03:34:56;;;;;;;15.82;7.68;;;;;;;-1.51;42.26;101097.91;5091680;28;20401;-79
2022/03/16 03:37:25;;;;;;;16.10;7.63;;;;;;;-1.56;42.29;101105.63;5074752;28;20035;-78
2022/03/16 03:39:52;;;;;;;21.40;8.23;;;;;;;-1.55;42.06;101101.13;5092700;28;20056;-80
2022/03/16 03:42:19;;;;;;;19.45;9.35;;;;;;;-1.55;41.93;101109.16;5071591;28;20604;-79
2022/03/16 03:44:45;;;;;;;19.70;8.52;;;;;;;-1.60;42.02;101107.78;5064326;28;20072;-78
2022/03/16 03:47:12;;;;;;;18.07;9.27;;;;;;;-1.60;42.20;101107.78;5047969;28;20055;-78
2022/03/16 03:49:40;;;;;;;20.57;10.73;;;;;;;-1.59;42.13;101105.97;5090182;28;20416;-79
2022/03/16 03:52:07;;;;;;;19.43;9.70;;;;;;;-1.66;42.03;101111.13;5086485;28;20055;-77
2022/03/16 03:54:34;;;;;;;29.55;10.88;;;;;;;-1.61;42.33;101111.47;5067972;28;20055;-77
2022/03/16 03:57:01;;;;;;;22.63;10.10;;;;;;;-1.70;42.21;101107.09;5057877;28;20040;-78
2022/03/16 03:59:28;;;;;;;19.60;9.67;;;;;;;-1.62;42.31;101122.38;5079602;28;20048;-78
2022/03/16 04:01:54;;;;;;;21.70;9.90;;;;;;;-1.65;42.27;101120.84;5067517;28;20818;-79
2022/03/16 04:04:21;;;;;;;20.20;10.38;;;;;;;-1.63;42.34;101121.53;5075746;28;20507;-78
2022/03/16 04:06:48;;;;;;;18.77;10.37;;;;;;;-1.55;42.23;101127.94;5093643;28;20101;-78
2022/03/16 04:09:15;;;;;;;20.10;10.82;;;;;;;-1.69;42.21;101121.34;5086964;28;20309;-79
2022/03/16 04:11:41;;;;;;;21.90;10.30;;;;;;;-1.65;42.38;101120.00;5058155;28;20055;-79
2022/03/16 04:14:10;;;;;;;21.20;10.80;;;;;;;-1.71;42.29;101105.44;5040618;28;20155;-78
2022/03/16 04:16:37;;;;;;;22.77;11.13;;;;;;;-1.58;42.09;101127.25;5073292;28;20084;-78
2022/03/16 04:19:03;;;;;;;22.13;10.83;;;;;;;-1.61;42.48;101130.25;5068439;28;20048;-79
2022/03/16 04:21:30;;;;;;;22.33;10.47;;;;;;;-1.57;42.38;101128.91;5074259;28;20044;-80
2022/03/16 04:23:57;;;;;;;24.17;10.73;;;;;;;-1.59;42.48;101138.97;5092475;28;20166;-81
2022/03/16 04:26:23;;;;;;;20.58;10.52;;;;;;;-1.54;42.55;101143.88;5083010;28;20055;-80
2022/03/16 04:28:49;;;;;;;24.27;10.00;;;;;;;-1.58;42.49;101131.78;5057072;28;20068;-80
2022/03/16 04:31:16;;;;;;;22.33;10.10;;;;;;;-1.59;41.91;101128.25;5074376;28;20507;-80
2022/03/16 04:33:42;;;;;;;19.95;9.02;;;;;;;-1.49;42.30;101149.56;5057467;28;20044;-80
2022/03/16 04:36:09;;;;;;;23.77;9.60;;;;;;;-1.44;42.39;101138.38;5065062;28;20544;-79
2022/03/16 04:38:35;;;;;;;19.00;9.90;;;;;;;-1.36;42.00;101156.34;5092016;28;20093;-80
2022/03/16 04:41:03;;;;;;;21.37;9.70;;;;;;;-1.32;42.02;101150.47;5073907;28;20454;-80
2022/03/16 04:43:29;;;;;;;;;;;;;;;-1.27;42.13;101154.50;5083692;28;20291;-80
2022/03/16 04:45:56;;;;;;;18.67;8.90;;;;;;;-1.29;42.02;101149.31;5067824;28;20011;-79
2022/03/16 04:48:25;;;;;;;26.00;8.70;;;;;;;-1.23;41.68;101153.22;5090593;28;20052;-80
2022/03/16 04:50:51;;;;;;;25.57;9.30;;;;;;;-1.17;41.98;101155.22;5090218;28;20055;-80
2022/03/16 04:53:17;;;;;;;18.70;8.85;;;;;;;-1.15;42.02;101150.53;5071533;28;20054;-79
2022/03/16 04:55:44;;;;;;;20.37;9.53;;;;;;;-1.17;41.70;101139.97;5087710;28;20422;-77
2022/03/16 04:58:12;;;;;;;20.63;8.65;;;;;;;-1.04;41.77;101144.00;5092168;28;20165;-79
2022/03/16 05:00:39;;;;;;;18.67;8.63;;;;;;;-1.00;41.63;101156.09;5069737;28;20596;-81
2022/03/16 05:03:05;;;;;;;21.20;9.60;;;;;;;-0.97;41.79;101152.22;5051476;28;20063;-79
2022/03/16 05:05:32;;;;;;;20.43;9.07;;;;;;;-0.98;41.85;101147.88;5072286;28;20526;-83
2022/03/16 05:07:58;;;;;;;18.63;9.13;;;;;;;-0.92;41.80;101142.69;5090922;28;20133;-80
2022/03/16 05:10:24;;;;;;;22.93;8.73;;;;;;;-0.96;41.83;101144.03;5083182;28;20044;-79
2022/03/16 05:12:51;;;;;;;22.73;8.93;;;;;;;-0.77;41.56;101150.94;5088030;28;20051;-79
2022/03/16 05:15:20;;;;;;;20.37;8.83;;;;;;;-0.59;41.12;101158.00;5079301;28;20106;-80
2022/03/16 05:17:57;;;;;;;19.65;8.95;;;;;;;-0.55;41.18;101158.47;5091115;28;20044;-80
2022/03/16 05:20:24;;;;;;;19.87;8.17;;;;;;;-0.50;41.08;101159.66;5090655;28;20051;-82
2022/03/16 05:22:51;;;;;;;22.57;8.80;;;;;;;-0.43;41.32;101157.13;5080679;28;20083;-82
2022/03/16 05:25:22;;;;;;;25.40;9.98;;;;;;;-0.48;41.30;101152.25;5070872;28;20497;-83
2022/03/16 05:28:13;;;;;;;22.73;9.35;;;;;;;-0.45;40.97;101148.41;5040049;28;20048;-81
2022/03/16 05:31:14;;;;;;;29.37;9.93;;;;;;;-0.76;40.80;101090.84;5059150;28;20424;-80
2022/03/16 05:34:06;;;;;;;24.07;9.27;;;;;;;-0.82;40.74;101058.44;5037868;28;20190;-80
2022/03/16 05:37:14;;;;;;;20.77;9.27;;;;;;;-0.80;40.83;101059.91;5071473;28;20078;-78
2022/03/16 05:41:11;;;;;;;;;;;;;;;;;;;;;
2022/03/16 05:43:40;;;;;;;22.55;9.20;;;;;;;-0.20;40.52;101125.03;5088076;28;20044;-79
2022/03/16 05:47:37;;;;;;;27.98;9.70;;;;;;;0.16;40.12;101172.19;5006636;28;20051;-80
2022/03/16 05:58:32;;;;;;;26.23;9.23;;;;;;;0.45;39.60;101134.91;4994780;28;20140;-79
2022/03/16 06:01:01;;;;;;;22.58;9.35;;;;;;;0.78;39.44;101178.69;5015108;28;20096;-78
2022/03/16 06:03:29;;;;;;;29.43;10.83;;;;;;;0.83;39.58;101178.16;5017422;28;20136;-79
2022/03/16 06:05:55;;;;;;;23.45;9.88;;;;;;;0.94;39.48;101182.28;5034070;28;20148;-78
2022/03/16 06:08:21;;;;;;;26.85;10.88;;;;;;;0.98;39.35;101181.78;5090843;28;20138;-78
2022/03/16 06:10:47;;;;;;;36.03;10.73;;;;;;;1.12;39.19;101184.72;5072366;28;20588;-78
2022/03/16 06:13:13;;;;;;;33.45;11.00;;;;;;;1.21;39.17;101182.81;5090183;28;20044;-77
2022/03/16 06:15:41;;;;;;;24.40;11.27;;;;;;;1.30;38.86;101188.97;5071672;28;20081;-76
2022/03/16 06:18:08;;;;;;;28.95;13.15;;;;;;;1.29;39.21;101188.13;5087185;28;20041;-77
2022/03/16 06:20:35;;;;;;;30.73;11.77;;;;;;;1.28;39.34;101189.16;5055553;28;20074;-79
2022/03/16 06:23:04;;;;;;;31.20;12.52;;;;;;;1.44;39.01;101193.59;5055472;28;20059;-79
2022/03/16 06:25:31;;;;;;;43.17;12.18;;;;;;;1.50;39.03;101195.56;5057418;28;20050;-78
2022/03/16 06:27:57;;;;;;;24.13;11.60;;;;;;;1.66;38.87;101199.16;5090119;28;20458;-79
2022/03/16 06:30:23;;;;;;;25.35;11.35;;;;;;;1.68;38.85;101203.34;5072351;28;20386;-79
2022/03/16 06:32:49;;;;;;;29.10;11.18;;;;;;;1.72;38.68;101202.97;5108084;28;20044;-79
2022/03/16 06:35:16;;;;;;;25.77;11.15;;;;;;;1.76;38.67;101202.44;5105565;28;20097;-78
2022/03/16 06:37:44;;;;;;;29.33;10.70;;;;;;;1.84;38.51;101202.34;5056132;28;20573;-79
2022/03/16 06:40:12;;;;;;;33.53;11.57;;;;;;;1.88;38.53;101202.84;5089805;28;20116;-82
2022/03/16 06:42:45;;;;;;;36.80;13.85;;;;;;;1.98;38.07;101199.88;5068770;28;20052;-80
2022/03/16 06:45:11;;;;;;;34.50;11.68;;;;;;;2.13;38.20;101210.72;5087795;28;20051;-81
2022/03/16 06:47:39;;;;;;;24.77;11.18;;;;;;;2.13;38.05;101197.22;5089058;28;20040;-80
2022/03/16 06:50:06;;;;;;;25.27;12.33;;;;;;;2.25;38.08;101208.38;5088160;28;20052;-80
2022/03/16 06:52:32;;;;;;;;;;;;;;;2.24;38.12;101214.81;5062541;28;20460;-81
2022/03/16 06:54:59;;;;;;;24.23;9.85;;;;;;;2.20;37.96;101191.91;5090150;28;19923;-78
2022/03/16 06:57:25;;;;;;;24.17;10.03;;;;;;;2.41;37.72;101202.81;5086715;28;20134;-80
2022/03/16 06:59:51;;;;;;;33.65;9.63;;;;;;;2.46;37.54;101207.66;5065350;28;20049;-79
2022/03/16 07:02:18;;;;;;;24.13;9.80;;;;;;;2.54;37.25;101204.84;5068596;28;20097;-80
2022/03/16 07:04:44;;;;;;;21.15;9.80;;;;;;;2.55;37.17;101192.19;5081010;28;20082;-79
2022/03/16 07:07:10;;;;;;;22.95;10.15;;;;;;;2.79;37.06;101211.78;5072239;28;20048;-80
2022/03/16 07:09:36;;;;;;;21.08;10.73;;;;;;;2.81;36.70;101217.84;5088476;28;20044;-76
2022/03/16 07:12:04;;;;;;;19.05;9.85;;;;;;;3.01;36.51;101211.88;5085321;28;20054;-76
2022/03/16 07:14:30;;;;;;;19.27;9.43;;;;;;;3.13;36.30;101221.16;5085653;28;20446;-76
2022/03/16 07:16:57;;;;;;;17.55;8.70;;;;;;;3.17;36.27;101225.16;5087744;28;20044;-75
2022/03/16 07:19:23;;;;;;;20.45;8.30;;;;;;;3.22;36.21;101222.72;5064798;28;20097;-75
2022/03/16 07:21:49;;;;;;;16.83;8.23;;;;;;;3.26;35.98;101215.88;5070330;28;20091;-76
2022/03/16 07:24:15;;;;;;;16.83;7.78;;;;;;;3.35;35.86;101218.47;5087215;28;20109;-76
2022/03/16 07:26:42;;;;;;;18.17;6.88;;;;;;;3.42;35.53;101218.56;5069439;28;20043;-75
2022/03/16 07:29:09;;;;;;;17.70;7.53;;;;;;;3.39;35.44;101211.66;5088142;28;20048;-74
2022/03/16 07:31:35;;;;;;;18.83;6.97;;;;;;;3.50;35.37;101213.00;5087585;28;20462;-75
2022/03/16 07:34:02;;;;;;;23.15;7.63;;;;;;;3.55;35.07;101213.28;5068670;28;20155;-78
2022/03/16 07:36:28;;;;;;;15.15;6.75;;;;;;;3.54;35.06;101184.56;5070929;28;20078;-78
2022/03/16 07:38:54;;;;;;;19.88;7.10;;;;;;;3.73;34.87;101203.84;5090361;28;20075;-79
2022/03/16 07:41:21;;;;;;;12.80;6.40;;;;;;;3.82;34.70;101211.63;5054475;28;20461;-79
2022/03/16 07:43:47;;;;;;;14.25;6.78;;;;;;;3.82;34.46;101213.50;5051320;28;20083;-79
2022/03/16 07:46:14;;;;;;;17.75;7.13;;;;;;;3.84;34.36;101214.16;5088690;28;20074;-77
2022/03/16 07:48:43;;;;;;;12.93;6.28;;;;;;;3.82;34.17;101217.06;5088884;28;20076;-78
2022/03/16 07:51:09;;;;;;;14.95;6.15;;;;;;;3.96;34.11;101211.75;5054685;28;20494;-78
2022/03/16 07:53:35;;;;;;;17.98;7.10;;;;;;;4.09;33.92;101221.84;5069562;28;20052;-78
2022/03/16 07:56:02;;;;;;;27.92;6.85;;;;;;;4.13;33.75;101211.47;5051376;28;20056;-79
2022/03/16 07:58:28;;;;;;;34.28;7.90;;;;;;;4.18;33.73;101200.84;5075776;28;20044;-80
2022/03/16 08:00:54;;;;;;;25.58;7.53;;;;;;;4.32;33.54;101202.63;5052191;28;20066;-76
2022/03/16 08:03:21;;;;;;;26.35;8.07;;;;;;;4.39;33.34;101200.81;5088312;28;20525;-75
2022/03/16 08:05:48;;;;;;;15.38;7.28;;;;;;;4.43;33.23;101203.13;5083376;28;20036;-76
2022/03/16 08:08:14;;;;;;;23.17;8.90;;;;;;;4.45;33.15;101206.44;5068516;28;20048;-75
2022/03/16 08:10:40;;;;;;;57.17;10.95;;;;;;;4.56;32.98;101205.91;5067254;28;20138;-75
2022/03/16 08:13:07;;;;;;;108.57;13.45;;;;;;;4.69;32.83;101199.69;5085057;28;20040;-76
2022/03/16 08:15:33;;;;;;;58.78;8.18;;;;;;;4.83;32.53;101208.72;5071060;28;20040;-76
2022/03/16 08:17:59;;;;;;;48.28;9.25;;;;;;;4.93;32.30;101202.94;5083300;28;20056;-76
2022/03/16 08:20:26;;;;;;;46.80;8.77;;;;;;;4.94;32.10;101196.47;5088079;28;20570;-76
2022/03/16 08:22:56;;;;;;;35.88;7.30;;;;;;;4.95;31.88;101193.53;5056279;28;20566;-76
2022/03/16 08:25:23;;;;;;;22.48;8.40;;;;;;;5.07;31.78;101201.94;5096329;28;20032;-75
2022/03/16 08:27:49;;;;;;;25.23;8.18;;;;;;;5.07;31.59;101187.53;5078595;28;20048;-80
2022/03/16 08:30:16;;;;;;;19.65;6.55;;;;;;;5.19;31.41;101183.19;5046706;28;20097;-76
2022/03/16 08:32:42;;;;;;;28.65;9.32;;;;;;;5.25;31.13;101203.25;5073502;28;20130;-78
2022/03/16 08:35:10;;;;;;;64.75;9.98;;;;;;;5.37;30.94;101206.19;5090231;28;20156;-75
2022/03/16 08:37:37;;;;;;;40.85;7.63;;;;;;;5.40;30.94;101203.06;5081520;28;20048;-76
2022/03/16 08:40:04;;;;;;;;;;;;;;;5.46;30.65;101209.53;5088784;28;20508;-75
2022/03/16 08:42:31;;;;;;;15.38;5.95;;;;;;;5.60;30.54;101211.22;5076575;28;20361;-74
2022/03/16 08:44:57;;;;;;;15.88;6.80;;;;;;;5.60;30.49;101197.66;5089168;28;20051;-79
2022/03/16 08:47:23;;;;;;;14.60;6.50;;;;;;;5.66;30.66;101199.53;5089378;28;20753;-75
2022/03/16 08:49:53;;;;;;;13.27;6.43;;;;;;;5.74;30.36;101205.81;5091337;28;20071;-76
2022/03/16 08:52:20;;;;;;;19.35;6.93;;;;;;;5.92;30.04;101197.03;5072822;28;20060;-75
2022/03/16 08:54:47;;;;;;;19.08;6.55;;;;;;;6.02;30.05;101207.53;5053982;28;20046;-75
2022/03/16 08:57:15;;;;;;;20.98;6.65;;;;;;;6.08;29.72;101202.06;5090843;28;20044;-75
2022/03/16 08:59:41;;;;;;;;;;;;;;;6.18;29.66;101201.66;5091755;28;20051;-76
2022/03/16 09:02:09;;;;;;;14.23;6.22;;;;;;;6.25;29.62;101201.66;5084267;28;19924;-75
2022/03/16 09:04:35;;;;;;;20.60;6.53;;;;;;;6.31;29.24;101208.94;5093525;28;20040;-75
2022/03/16 09:07:02;;;;;;;26.27;6.80;;;;;;;6.39;29.01;101205.16;5056682;28;20453;-75
2022/03/16 09:09:29;;;;;;;20.20;6.87;;;;;;;6.50;28.86;101209.94;5091746;28;20032;-75
2022/03/16 09:11:56;;;;;;;18.23;6.88;;;;;;;6.62;28.71;101206.56;5091427;28;20453;-75
2022/03/16 09:14:23;;;;;;;16.02;6.53;;;;;;;6.76;28.90;101193.75;5091256;28;20130;-69
2022/03/16 09:16:49;;;;;;;21.88;6.65;;;;;;;6.93;28.52;101205.81;5091423;28;20050;-69
2022/03/16 09:19:16;;;;;;;17.80;6.53;;;;;;;7.14;28.54;101200.28;5091344;28;20040;-67
2022/03/16 09:21:43;;;;;;;20.25;6.70;;;;;;;7.23;28.46;101210.69;5091242;28;20052;-68
2022/03/16 09:24:10;;;;;;;;;;;;;;;7.40;27.95;101207.47;5091735;28;20136;-68
2022/03/16 09:26:36;;;;;;;15.70;5.93;;;;;;;7.42;27.91;101202.63;5091480;28;20385;-68
2022/03/16 09:29:03;;;;;;;17.58;6.38;;;;;;;7.56;27.55;101199.81;5067802;28;20047;-69
2022/03/16 09:31:29;;;;;;;14.45;5.70;;;;;;;7.68;27.57;101202.66;5088589;28;20480;-69
2022/03/16 09:33:56;;;;;;;24.20;6.70;;;;;;;7.67;27.35;101188.22;5078632;28;20051;-69
2022/03/16 09:36:22;;;;;;;14.50;6.35;;;;;;;7.79;27.28;101188.34;5072973;28;20040;-70
2022/03/16 09:38:48;;;;;;;18.00;6.40;;;;;;;8.00;27.34;101188.97;5088173;28;20036;-68
2022/03/16 09:41:14;;;;;;;16.70;6.05;;;;;;;7.99;27.19;101171.81;5090003;28;20046;-69
2022/03/16 09:43:43;;;;;;;15.45;6.60;;;;;;;8.27;26.71;101199.63;5055832;28;20044;-70
2022/03/16 09:46:12;;;;;;;13.85;5.65;;;;;;;8.20;26.88;101195.09;5071653;28;20059;-69
2022/03/16 09:48:39;;;;;;;13.75;6.13;;;;;;;8.30;26.80;101193.72;5064438;28;20056;-68
2022/03/16 09:51:07;;;;;;;15.90;6.22;;;;;;;8.44;26.44;101195.25;5087070;28;20044;-74
2022/03/16 09:53:34;;;;;;;12.63;5.70;;;;;;;8.64;26.17;101192.34;5056717;28;20044;-73
2022/03/16 09:56:00;;;;;;;16.58;7.40;;;;;;;8.72;26.06;101185.75;5073288;28;20480;-74
2022/03/16 09:58:27;;;;;;;20.27;6.20;;;;;;;8.83;25.95;101195.03;5090987;28;20133;-73
2022/03/16 10:00:53;;;;;;;18.95;6.60;;;;;;;8.88;25.94;101192.44;5066315;28;20162;-78
2022/03/16 10:03:22;;;;;;;13.20;5.93;;;;;;;9.09;25.71;101193.03;5053693;28;20594;-78
2022/03/16 10:05:50;;;;;;;14.13;6.82;;;;;;;9.07;25.70;101165.16;5026993;28;20039;-77
2022/03/16 10:08:25;;;;;;;;;;;;;;;9.33;25.47;101183.03;5073072;28;20066;-78
2022/03/16 10:13:51;;;;;;;16.20;7.03;;;;;;;9.44;25.34;101188.75;5071451;28;20047;-77
2022/03/16 10:16:18;;;;;;;18.67;7.20;;;;;;;9.58;25.00;101190.22;5072314;28;20032;-78
2022/03/16 10:18:54;;;;;;;14.60;7.07;;;;;;;9.62;25.00;101183.25;5069866;28;20490;-77
2022/03/16 10:21:21;;;;;;;14.63;6.20;;;;;;;9.81;25.03;101191.34;5053677;28;20134;-77
2022/03/16 10:23:47;;;;;;;12.35;5.95;;;;;;;9.84;25.09;101196.31;5084538;28;20776;-77
2022/03/16 10:26:16;;;;;;;13.40;5.82;;;;;;;9.81;24.69;101182.28;5096028;28;20051;-78
2022/03/16 10:28:44;;;;;;;13.48;6.15;;;;;;;9.90;24.80;101187.16;5072460;28;20048;-78
2022/03/16 10:31:14;;;;;;;13.63;6.05;;;;;;;9.87;24.75;101170.44;5054169;28;20205;-72
2022/03/16 10:33:46;;;;;;;13.68;6.65;;;;;;;10.12;24.20;101193.97;5071952;28;20142;-77
2022/03/16 10:36:14;;;;;;;12.18;6.38;;;;;;;10.05;24.26;101189.47;5076357;28;20052;-77
2022/03/16 10:38:42;;;;;;;15.90;6.18;;;;;;;10.19;24.20;101184.56;5070690;28;20075;-76
2022/03/16 10:46:34;;;;;;;12.07;5.90;;;;;;;10.32;24.18;101194.44;5070963;28;20059;-77
2022/03/16 10:46:47;;;;;;;14.57;6.28;;;;;;;10.73;23.81;101188.22;5050568;28;20044;-77
2022/03/16 10:49:17;;;;;;;12.98;6.15;;;;;;;10.85;23.54;101182.69;5054729;28;20492;-78
2022/03/16 10:51:47;;;;;;;14.18;6.00;;;;;;;10.85;23.38;101180.81;5054024;28;20048;-77
2022/03/16 10:54:16;;;;;;;15.27;6.45;;;;;;;10.82;23.23;101181.28;5069932;28;20062;-78
2022/03/16 10:56:44;;;;;;;12.20;5.85;;;;;;;10.96;23.00;101181.84;5034434;28;20511;-77
2022/03/16 10:59:11;;;;;;;11.27;5.32;;;;;;;11.09;22.82;101185.34;5072745;28;20048;-77
2022/03/16 11:01:38;;;;;;;14.27;5.80;;;;;;;11.09;22.50;101185.34;5055892;28;20055;-77
2022/03/16 11:04:06;;;;;;;11.23;5.40;;;;;;;11.14;22.81;101180.81;5071119;28;20051;-78
2022/03/16 11:06:35;;;;;;;15.95;5.38;;;;;;;11.26;22.65;101180.75;5072901;28;20104;-77
2022/03/16 11:09:02;;;;;;;11.75;5.35;;;;;;;11.34;22.54;101177.63;5072852;28;20499;-77
2022/03/16 11:14:17;;;;;;;11.55;5.78;;;;;;;11.61;22.09;101171.50;5088074;28;20070;-77
2022/03/16 11:16:46;;;;;;;13.23;5.45;;;;;;;11.39;22.29;101167.84;5072462;28;20052;-78
2022/03/16 11:19:17;;;;;;;13.07;6.50;;;;;;;11.52;22.31;101178.47;5090639;28;20116;-78
2022/03/16 11:21:52;;;;;;;14.15;5.93;;;;;;;11.72;22.02;101169.78;5081755;28;20135;-78
2022/03/16 11:24:22;;;;;;;17.23;6.00;;;;;;;11.66;21.57;101172.69;5056490;28;20419;-77
2022/03/16 11:27:07;;;;;;;11.82;6.00;;;;;;;11.98;21.87;101178.38;5090515;28;20047;-79
2022/03/16 11:29:43;;;;;;;14.30;5.47;;;;;;;12.16;21.54;101160.03;5072654;28;20411;-77
2022/03/16 11:32:11;;;;;;;13.07;5.40;;;;;;;12.46;20.97;101173.34;5088882;28;20323;-79
2022/03/16 11:34:38;;;;;;;13.15;5.60;;;;;;;12.71;20.75;101172.00;5062683;28;20595;-79
2022/03/16 11:37:10;;;;;;;11.25;5.10;;;;;;;12.71;20.82;101166.50;5071748;28;20138;-80
2022/03/16 11:39:42;;;;;;;12.27;5.63;;;;;;;12.63;20.23;101165.03;5090832;28;20138;-79
2022/03/16 11:42:11;;;;;;;16.25;5.43;;;;;;;12.96;20.50;101161.59;5064573;28;20483;-79
2022/03/16 11:44:39;;;;;;;12.05;5.43;;;;;;;13.07;20.30;101146.88;5070606;28;20058;-79
2022/03/16 11:47:34;;;;;;;13.32;5.82;;;;;;;13.32;19.94;101167.47;5071920;28;20083;-79
2022/03/16 11:50:11;;;;;;;11.10;5.30;;;;;;;13.50;20.13;101173.69;5078958;28;20522;-78